createdAt,value
2018-04-13T00:01:39.453Z,81.40
2018-04-13T00:04:09.363Z,81.80
2018-04-13T00:06:39.178Z,82.60
2018-04-13T00:09:09.165Z,82.70
2018-04-13T00:11:39.918Z,83.00
2018-04-13T00:14:10.555Z,82.90
2018-04-13T00:16:40.445Z,83.20
2018-04-13T00:19:11.576Z,83.60
2018-04-13T00:21:41.478Z,83.60
2018-04-13T00:24:11.800Z,83.90
2018-04-13T00:26:42.068Z,83.80
2018-04-13T00:29:12.595Z,84.30
2018-04-13T00:31:43.382Z,84.70
2018-04-13T00:34:13.180Z,84.70
2018-04-13T00:36:43.045Z,85.20
2018-04-13T00:39:14.183Z,88.60
2018-04-13T00:41:45.192Z,89.90
2018-04-13T00:44:15.276Z,89.90
2018-04-13T00:46:45.577Z,90.70
2018-04-13T00:49:16.553Z,92.50
2018-04-13T00:51:46.854Z,92.50
2018-04-13T00:54:17.106Z,93.20
2018-04-13T00:56:46.951Z,93.00
2018-04-13T00:59:17.039Z,93.60
2018-04-13T01:01:46.876Z,94.20
2018-04-13T01:04:17.781Z,94.00
2018-04-13T01:06:48.161Z,94.20
2018-04-13T01:09:19.737Z,94.40
2018-04-13T01:11:51.042Z,94.60
2018-04-13T01:16:54.969Z,94.20
2018-04-13T01:19:26.197Z,93.70
2018-04-13T01:21:56.083Z,93.70
2018-04-13T01:24:26.002Z,93.40
2018-04-13T01:26:56.242Z,93.80
2018-04-13T01:29:26.065Z,94.10
2018-04-13T01:31:55.916Z,94.20
2018-04-13T01:34:25.858Z,94.20
2018-04-13T01:36:55.726Z,94.40
2018-04-13T01:39:25.595Z,94.40
2018-04-13T01:41:55.476Z,94.40
2018-04-13T01:44:26.101Z,94.40
2018-04-13T01:46:56.828Z,94.50
2018-04-13T01:49:27.407Z,94.80
2018-04-13T01:51:57.283Z,94.50
2018-04-13T01:54:27.869Z,94.60
2018-04-13T01:56:57.724Z,94.60
2018-04-13T01:59:28.368Z,94.50
2018-04-13T02:01:58.559Z,94.50
2018-04-13T02:04:28.435Z,94.60
2018-04-13T02:06:58.315Z,94.70
2018-04-13T02:09:28.573Z,94.70
2018-04-13T02:11:58.733Z,94.70
2018-04-13T02:14:28.589Z,94.80
2018-04-13T02:16:59.112Z,94.60
2018-04-13T02:19:29.315Z,94.80
2018-04-13T02:22:00.263Z,95.00
2018-04-13T02:24:30.114Z,95.00
2018-04-13T02:27:00.396Z,94.80
2018-04-13T02:29:31.735Z,94.70
2018-04-13T02:32:02.365Z,94.80
2018-04-13T02:34:33.012Z,94.80
2018-04-13T02:37:02.916Z,94.80
2018-04-13T02:39:34.056Z,92.00
2018-04-13T02:42:04.584Z,90.50
2018-04-13T02:44:35.156Z,88.60
2018-04-13T02:47:05.544Z,88.50
2018-04-13T02:49:36.715Z,84.80
2018-04-13T02:52:07.136Z,84.80
2018-04-13T02:54:37.540Z,84.30
2018-04-13T02:57:07.904Z,81.60
2018-04-13T02:59:38.330Z,80.80
2018-04-13T03:02:08.148Z,79.40
2018-04-13T03:04:38.533Z,78.70
2018-04-13T03:07:10.432Z,77.60
2018-04-13T03:09:40.496Z,77.60
2018-04-13T03:12:11.564Z,76.80
2018-04-13T03:14:41.981Z,76.80
2018-04-13T03:17:13.445Z,77.00
2018-04-13T03:19:43.862Z,77.00
2018-04-13T03:22:14.954Z,77.20
2018-04-13T03:24:45.236Z,77.60
2018-04-13T03:27:15.748Z,77.70
2018-04-13T03:29:47.516Z,78.90
2018-04-13T03:32:18.060Z,80.30
2018-04-13T03:34:48.298Z,80.30
2018-04-13T03:37:18.537Z,81.50
2018-04-13T03:39:48.898Z,81.70
2018-04-13T03:42:19.977Z,83.30
2018-04-13T03:44:50.525Z,83.20
2018-04-13T03:47:20.777Z,83.50
2018-04-13T03:49:51.933Z,84.40
2018-04-13T03:52:22.480Z,84.40
2018-04-13T03:54:53.467Z,84.80
2018-04-13T03:57:24.258Z,85.30
2018-04-13T03:59:54.278Z,85.40
2018-04-13T04:02:24.172Z,86.00
2018-04-13T04:04:55.357Z,86.30
2018-04-13T04:07:25.193Z,86.30
2018-04-13T04:09:55.296Z,86.30
2018-04-13T04:12:26.186Z,87.10
2018-04-13T04:14:56.797Z,87.80
2018-04-13T04:17:26.650Z,87.80
2018-04-13T04:20:08.254Z,87.90
2018-04-13T04:22:49.603Z,87.90
2018-04-13T04:25:31.890Z,88.20
2018-04-13T04:28:02.069Z,88.10
2018-04-13T04:30:32.587Z,88.80
2018-04-13T04:33:02.610Z,89.50
2018-04-13T04:35:32.722Z,89.90
2018-04-13T04:38:03.830Z,89.60
2018-04-13T04:40:34.882Z,89.30
2018-04-13T04:43:05.758Z,89.10
2018-04-13T04:45:35.845Z,89.10
2018-04-13T04:48:07.949Z,89.70
2018-04-13T04:50:39.507Z,90.00
2018-04-13T04:53:09.360Z,89.30
2018-04-13T04:55:40.436Z,89.60
2018-04-13T04:58:10.957Z,89.50
2018-04-13T05:00:41.303Z,89.60
2018-04-13T05:03:11.299Z,89.80
2018-04-13T05:05:41.608Z,90.10
2018-04-13T05:08:12.673Z,90.10
2018-04-13T05:10:43.039Z,90.00
2018-04-13T05:13:13.489Z,90.00
2018-04-13T05:15:44.473Z,90.10
2018-04-13T05:18:14.338Z,90.10
2018-04-13T05:20:45.323Z,90.40
2018-04-13T05:23:15.617Z,90.30
2018-04-13T05:25:45.848Z,90.60
2018-04-13T05:28:16.982Z,90.90
2018-04-13T05:30:48.108Z,90.50
2018-04-13T05:33:18.275Z,90.50
2018-04-13T05:35:48.596Z,90.80
2018-04-13T05:38:19.748Z,90.90
2018-04-13T05:40:49.536Z,90.70
2018-04-13T05:43:20.038Z,90.80
2018-04-13T05:45:49.793Z,90.70
2018-04-13T05:48:19.655Z,90.90
2018-04-13T05:50:51.058Z,90.90
2018-04-13T05:53:21.451Z,90.80
2018-04-13T05:55:52.509Z,91.10
2018-04-13T05:58:22.966Z,91.00
2018-04-13T06:00:54.979Z,91.00
2018-04-13T06:03:26.232Z,90.80
2018-04-13T06:05:57.290Z,90.90
2018-04-13T06:08:28.805Z,90.90
2018-04-13T06:10:59.789Z,90.70
2018-04-13T06:13:30.147Z,90.70
2018-04-13T06:16:00.207Z,90.60
2018-04-13T06:18:31.198Z,90.50
2018-04-13T06:21:01.662Z,90.50
2018-04-13T06:23:32.598Z,90.80
2018-04-13T06:26:03.912Z,90.50
2018-04-13T06:28:35.248Z,90.20
2018-04-13T06:31:06.283Z,90.20
2018-04-13T06:33:36.659Z,90.10
2018-04-13T06:36:06.829Z,90.10
2018-04-13T06:38:36.605Z,89.60
2018-04-13T06:41:07.163Z,89.50
2018-04-13T06:43:37.066Z,89.20
2018-04-13T06:46:08.330Z,88.80
2018-04-13T06:48:38.349Z,88.70
2018-04-13T06:51:08.187Z,88.50
2018-04-13T06:53:38.664Z,88.20
2018-04-13T06:56:08.453Z,87.90
2018-04-13T06:58:38.424Z,87.70
2018-04-13T07:01:08.907Z,87.70
2018-04-13T07:03:40.295Z,87.20
2018-04-13T07:06:10.479Z,87.10
2018-04-13T07:08:41.356Z,86.80
2018-04-13T07:11:11.619Z,86.80
2018-04-13T07:13:41.696Z,86.80
2018-04-13T07:16:11.492Z,86.60
2018-04-13T07:18:41.719Z,86.50
2018-04-13T07:21:11.666Z,86.40
2018-04-13T07:23:41.514Z,86.30
2018-04-13T07:26:12.746Z,86.40
2018-04-13T07:28:42.838Z,86.40
2018-04-13T07:31:13.131Z,86.30
2018-04-13T07:33:43.310Z,86.20
2018-04-13T07:36:13.475Z,86.20
2018-04-13T07:38:43.901Z,86.00
2018-04-13T07:41:13.672Z,85.90
2018-04-13T07:43:44.116Z,85.90
2018-04-13T07:46:14.995Z,85.40
2018-04-13T07:48:44.879Z,85.40
2018-04-13T07:51:15.308Z,85.20
2018-04-13T07:53:45.722Z,85.10
2018-04-13T07:56:16.794Z,84.60
2018-04-13T07:58:46.748Z,84.60
2018-04-13T08:01:17.118Z,84.70
2018-04-13T08:03:47.431Z,84.60
2018-04-13T08:06:18.167Z,84.50
2018-04-13T08:08:49.207Z,84.50
2018-04-13T08:11:20.552Z,84.60
2018-04-13T08:13:51.909Z,84.60
2018-04-13T08:16:23.070Z,84.50
2018-04-13T08:18:53.466Z,84.50
2018-04-13T08:21:25.136Z,84.40
2018-04-13T08:23:55.857Z,84.40
2018-04-13T08:26:27.650Z,84.50
2018-04-13T08:28:58.834Z,84.50
2018-04-13T08:31:28.578Z,84.60
2018-04-13T08:33:59.746Z,84.80
2018-04-13T08:36:29.981Z,84.80
2018-04-13T08:39:00.238Z,84.90
2018-04-13T08:41:31.555Z,85.10
2018-04-13T08:44:01.612Z,85.20
2018-04-13T08:46:31.702Z,85.10
2018-04-13T08:49:03.001Z,85.00
2018-04-13T08:51:33.526Z,85.00
2018-04-13T08:54:03.838Z,85.00
2018-04-13T08:56:34.417Z,84.90
2018-04-13T08:59:04.951Z,84.90
2018-04-13T09:01:35.534Z,84.80
2018-04-13T09:04:05.605Z,84.80
2018-04-13T09:06:35.993Z,84.70
2018-04-13T09:09:06.631Z,84.60
2018-04-13T09:11:36.977Z,84.70
2018-04-13T09:14:06.892Z,84.70
2018-04-13T09:16:37.333Z,84.70
2018-04-13T09:19:07.634Z,84.70
2018-04-13T09:21:37.448Z,84.60
2018-04-13T09:24:07.944Z,84.50
2018-04-13T09:26:38.952Z,84.40
2018-04-13T09:29:10.098Z,84.40
2018-04-13T09:31:40.300Z,84.30
2018-04-13T09:34:10.501Z,84.30
2018-04-13T09:36:40.943Z,84.20
2018-04-13T09:39:11.046Z,84.30
2018-04-13T09:41:41.683Z,84.40
2018-04-13T09:44:11.455Z,84.40
2018-04-13T09:46:44.666Z,85.00
2018-04-13T09:49:14.905Z,84.60
2018-04-13T09:51:45.652Z,84.60
2018-04-13T09:54:15.487Z,84.30
2018-04-13T09:56:45.600Z,84.20
2018-04-13T09:59:16.122Z,84.30
2018-04-13T10:01:46.635Z,84.40
2018-04-13T10:04:17.076Z,84.50
2018-04-13T10:06:47.239Z,84.40
2018-04-13T10:09:18.032Z,84.30
2018-04-13T10:11:49.674Z,84.30
2018-04-13T10:14:19.961Z,84.40
2018-04-13T10:16:50.916Z,84.50
2018-04-13T10:19:21.015Z,84.50
2018-04-13T10:21:52.084Z,84.90
2018-04-13T10:24:22.254Z,84.90
2018-04-13T10:26:53.343Z,85.20
2018-04-13T10:29:23.271Z,85.20
2018-04-13T10:31:53.973Z,85.20
2018-04-13T10:34:25.932Z,85.20
2018-04-13T10:36:56.851Z,85.20
2018-04-13T10:39:27.127Z,85.20
2018-04-13T10:41:56.942Z,84.70
2018-04-13T10:44:27.003Z,85.70
2018-04-13T10:46:57.068Z,85.60
2018-04-13T10:49:28.383Z,85.20
2018-04-13T10:51:59.464Z,85.70
2018-04-13T10:54:29.269Z,85.70
2018-04-13T10:56:59.353Z,85.50
2018-04-13T10:59:29.519Z,85.70
2018-04-13T11:01:59.408Z,85.50
2018-04-13T11:04:29.357Z,85.90
2018-04-13T11:06:59.374Z,85.90
2018-04-13T11:09:30.343Z,85.60
2018-04-13T11:12:00.359Z,85.60
2018-04-13T11:14:30.424Z,85.80
2018-04-13T11:17:00.691Z,85.70
2018-04-13T11:19:30.773Z,85.80
2018-04-13T11:22:01.175Z,86.00
2018-04-13T11:24:31.304Z,86.20
2018-04-13T11:27:01.265Z,86.20
2018-04-13T11:29:31.147Z,86.10
2018-04-13T11:32:01.177Z,85.90
2018-04-13T11:34:31.230Z,86.20
2018-04-13T11:37:01.025Z,86.50
2018-04-13T11:39:32.646Z,86.50
2018-04-13T11:42:03.330Z,86.40
2018-04-13T11:44:33.149Z,86.70
2018-04-13T11:47:03.020Z,87.70
2018-04-13T11:49:33.128Z,87.10
2018-04-13T11:52:03.592Z,87.50
2018-04-13T11:54:33.848Z,87.20
2018-04-13T11:57:04.993Z,88.50
2018-04-13T11:59:35.605Z,87.40
2018-04-13T12:02:05.780Z,87.40
2018-04-13T12:04:36.029Z,87.70
2018-04-13T12:07:07.134Z,87.60
2018-04-13T12:09:37.410Z,87.60
2018-04-13T12:12:07.466Z,87.90
2018-04-13T12:14:37.485Z,88.00
2018-04-13T12:17:07.580Z,87.80
2018-04-13T12:19:39.171Z,88.30
2018-04-13T12:22:10.093Z,88.30
2018-04-13T12:24:40.439Z,90.40
2018-04-13T12:27:10.757Z,91.10
2018-04-13T12:29:40.974Z,91.10
2018-04-13T12:32:10.964Z,91.40
2018-04-13T12:34:42.074Z,90.80
2018-04-13T12:37:12.346Z,90.80
2018-04-13T12:39:42.919Z,90.60
2018-04-13T12:42:13.779Z,90.40
2018-04-13T12:44:45.546Z,91.10
2018-04-13T12:47:16.692Z,90.70
2018-04-13T12:49:47.580Z,90.70
2018-04-13T12:52:18.101Z,90.70
2018-04-13T12:54:49.132Z,90.80
2018-04-13T12:57:19.541Z,90.70
2018-04-13T12:59:49.895Z,90.80
2018-04-13T13:02:20.321Z,90.70
2018-04-13T13:04:51.299Z,91.00
2018-04-13T13:07:21.622Z,90.90
2018-04-13T13:09:51.913Z,90.70
2018-04-13T13:12:22.400Z,90.80
2018-04-13T13:14:53.339Z,90.70
2018-04-13T13:17:24.723Z,90.90
2018-04-13T13:19:55.049Z,90.90
2018-04-13T13:22:25.681Z,91.10
2018-04-13T13:24:56.186Z,91.20
2018-04-13T13:27:26.331Z,91.40
2018-04-13T13:29:56.586Z,91.50
2018-04-13T13:32:26.967Z,91.20
2018-04-13T13:34:57.403Z,91.10
2018-04-13T13:37:27.587Z,91.10
2018-04-13T13:39:58.107Z,91.10
2018-04-13T13:42:29.652Z,91.00
2018-04-13T13:45:00.282Z,90.90
2018-04-13T13:47:31.847Z,91.10
2018-04-13T13:50:02.879Z,91.40
2018-04-13T13:52:34.458Z,91.50
2018-04-13T13:55:04.905Z,91.50
2018-04-13T13:57:35.035Z,91.10
2018-04-13T14:00:05.212Z,90.80
2018-04-13T14:02:36.328Z,91.10
2018-04-13T14:05:06.617Z,91.10
2018-04-13T14:07:37.079Z,90.80
2018-04-13T14:10:07.389Z,91.00
2018-04-13T14:12:37.900Z,91.50
2018-04-13T14:15:08.396Z,91.70
2018-04-13T14:17:39.030Z,92.00
2018-04-13T14:20:09.378Z,92.00
2018-04-13T14:22:39.942Z,91.90
2018-04-13T14:25:10.648Z,91.30
2018-04-13T14:27:40.903Z,91.30
2018-04-13T14:30:11.054Z,91.60
2018-04-13T14:32:42.027Z,92.10
2018-04-13T14:35:12.549Z,92.10
2018-04-13T14:37:42.812Z,92.40
2018-04-13T14:40:12.957Z,92.50
2018-04-13T14:42:43.324Z,92.00
2018-04-13T14:45:13.407Z,91.80
2018-04-13T14:47:44.552Z,92.20
2018-04-13T14:50:16.154Z,92.20
2018-04-13T14:52:47.451Z,92.20
2018-04-13T14:55:19.384Z,91.90
2018-04-13T14:57:50.968Z,92.00
2018-04-13T15:00:22.312Z,92.10
2018-04-13T15:02:53.282Z,91.90
2018-04-13T15:05:23.536Z,91.90
2018-04-13T15:07:53.754Z,92.20
2018-04-13T15:10:24.715Z,92.10
2018-04-13T15:12:54.965Z,92.90
2018-04-13T15:15:47.905Z,93.20
2018-04-13T15:18:20.735Z,93.10
2018-04-13T15:20:52.767Z,93.10
2018-04-13T15:23:25.004Z,93.10
2018-04-13T15:25:57.200Z,93.30
2018-04-13T15:28:28.245Z,93.10
2018-04-13T15:30:58.605Z,93.10
2018-04-13T15:33:28.519Z,93.20
2018-04-13T15:35:59.481Z,93.50
2018-04-13T15:38:29.540Z,93.50
2018-04-13T15:41:00.051Z,93.40
2018-04-13T15:43:33.196Z,93.50
2018-04-13T15:46:04.837Z,93.50
2018-04-13T15:48:35.187Z,93.50
2018-04-13T15:51:05.652Z,93.30
2018-04-13T15:53:37.922Z,93.40
2018-04-13T15:56:08.984Z,93.20
2018-04-13T15:58:39.330Z,93.20
2018-04-13T16:01:09.856Z,93.40
2018-04-13T16:03:40.763Z,93.40
2018-04-13T16:06:12.187Z,93.60
2018-04-13T16:08:43.704Z,93.60
2018-04-13T16:11:13.946Z,93.70
2018-04-13T16:13:44.271Z,93.80
2018-04-13T16:16:14.653Z,93.80
2018-04-13T16:18:44.768Z,93.70
2018-04-13T16:21:15.016Z,93.70
2018-04-13T16:23:45.131Z,93.60
2018-04-13T16:26:15.284Z,93.40
2018-04-13T16:28:45.275Z,93.40
2018-04-13T16:31:17.915Z,93.10
2018-04-13T16:33:54.750Z,92.70
2018-04-13T16:36:26.247Z,92.50
2018-04-13T16:38:56.047Z,92.50
2018-04-13T16:41:27.704Z,92.30
2018-04-13T16:43:58.905Z,90.70
2018-04-13T16:46:29.317Z,91.00
2018-04-13T16:48:59.597Z,87.60
2018-04-13T16:51:30.860Z,82.70
2018-04-13T16:54:00.967Z,82.70
2018-04-13T16:56:32.232Z,77.70
2018-04-13T16:59:02.320Z,77.60
2018-04-13T17:01:33.426Z,73.30
2018-04-13T17:04:03.627Z,73.10
2018-04-13T17:06:34.217Z,71.50
2018-04-13T17:09:05.321Z,69.10
2018-04-13T17:11:35.643Z,69.00
2018-04-13T17:14:05.941Z,68.20
2018-04-13T17:16:36.444Z,67.50
2018-04-13T17:19:07.726Z,66.50
2018-04-13T17:21:37.554Z,65.80
2018-04-13T17:24:08.847Z,64.40
2018-04-13T17:26:42.940Z,63.90
2018-04-13T17:29:13.138Z,63.80
2018-04-13T17:31:43.843Z,63.40
2018-04-13T17:34:14.165Z,62.90
2018-04-13T17:36:45.316Z,62.90
2018-04-13T17:39:15.606Z,62.90
2018-04-13T17:41:46.131Z,62.40
2018-04-13T17:44:17.539Z,61.80
2018-04-13T17:46:47.839Z,61.80
2018-04-13T17:49:20.108Z,61.80
2018-04-13T17:51:50.602Z,63.30
2018-04-13T17:54:22.648Z,64.90
2018-04-13T17:56:52.767Z,64.80
2018-04-13T17:59:22.956Z,63.90
2018-04-13T18:01:53.364Z,63.40
2018-04-13T18:04:23.551Z,62.60
2018-04-13T18:06:54.577Z,61.60
2018-04-13T18:09:24.483Z,61.50
2018-04-13T18:11:54.479Z,62.70
2018-04-13T18:14:24.449Z,66.30
2018-04-13T18:16:55.675Z,64.70
2018-04-13T18:19:25.562Z,64.50
2018-04-13T18:21:56.019Z,63.80
2018-04-13T18:24:27.286Z,66.30
2018-04-13T18:26:57.137Z,66.30
2018-04-13T18:29:26.999Z,68.80
2018-04-13T18:31:58.062Z,65.60
2018-04-13T18:34:28.675Z,65.60
2018-04-13T18:36:59.741Z,65.30
2018-04-13T18:39:30.222Z,65.20
2018-04-13T18:42:01.316Z,69.90
2018-04-13T18:44:32.155Z,70.40
2018-04-13T18:47:02.327Z,66.60
2018-04-13T18:49:32.595Z,65.90
2018-04-13T18:52:02.907Z,65.10
2018-04-13T18:54:33.256Z,67.60
2018-04-13T18:57:03.522Z,70.10
2018-04-13T18:59:33.691Z,69.50
2018-04-13T19:02:03.928Z,67.50
2018-04-13T19:04:34.900Z,66.40
2018-04-13T19:07:05.103Z,66.40
2018-04-13T19:09:35.295Z,69.30
2018-04-13T19:12:06.056Z,71.60
2018-04-13T19:14:36.509Z,69.80
2018-04-13T19:17:06.700Z,67.90
2018-04-13T19:19:37.982Z,67.70
2018-04-13T19:22:09.783Z,70.60
2018-04-13T19:24:41.748Z,72.50
2018-04-13T19:27:11.679Z,72.50
2018-04-13T19:29:41.532Z,68.60
2018-04-13T19:32:12.122Z,67.10
2018-04-13T19:34:41.914Z,66.40
2018-04-13T19:37:11.700Z,70.30
2018-04-13T19:39:42.275Z,71.50
2018-04-13T19:42:12.009Z,71.50
2018-04-13T19:44:41.899Z,69.50
2018-04-13T19:47:11.663Z,68.40
2018-04-13T19:49:42.034Z,70.00
2018-04-13T19:52:12.992Z,74.60
2018-04-13T19:54:43.148Z,74.50
2018-04-13T19:57:13.964Z,69.60
2018-04-13T19:59:44.340Z,69.50
2018-04-13T20:02:14.674Z,68.40
2018-04-13T20:04:45.148Z,72.00
2018-04-13T20:07:16.387Z,72.60
2018-04-13T20:09:46.871Z,72.50
2018-04-13T20:12:21.240Z,70.80
2018-04-13T20:14:52.329Z,70.40
2018-04-13T20:17:22.893Z,73.10
2018-04-13T20:19:53.457Z,73.10
2018-04-13T20:22:23.227Z,74.80
2018-04-13T20:24:54.751Z,69.70
2018-04-13T20:27:25.248Z,69.60
2018-04-13T20:29:55.719Z,71.20
2018-04-13T20:32:25.689Z,73.90
2018-04-13T20:34:56.935Z,75.90
2018-04-13T20:40:03.424Z,70.00
2018-04-13T20:42:34.488Z,73.10
2018-04-13T20:45:04.729Z,73.10
2018-04-13T20:47:34.938Z,75.20
2018-04-13T20:50:05.365Z,73.90
2018-04-13T20:52:35.850Z,71.20
2018-04-13T20:55:08.087Z,73.10
2018-04-13T20:57:38.217Z,72.90
2018-04-13T21:00:08.477Z,75.00
2018-04-13T21:02:39.163Z,72.40
2018-04-13T21:05:10.346Z,70.60
2018-04-13T21:07:42.591Z,71.70
2018-04-13T21:10:12.987Z,71.80
2018-04-13T21:12:43.636Z,74.40
2018-04-13T21:15:14.124Z,76.30
2018-04-13T21:17:44.367Z,74.10
2018-04-13T21:20:14.747Z,71.30
2018-04-13T21:22:45.811Z,73.60
2018-04-13T21:25:16.320Z,73.50
2018-04-13T21:27:47.602Z,76.10
2018-04-13T21:30:17.947Z,76.00
2018-04-13T21:32:48.419Z,73.40
2018-04-13T21:35:19.644Z,74.00
2018-04-13T21:37:49.752Z,74.00
2018-04-13T21:40:20.449Z,76.30
2018-04-13T21:42:51.735Z,77.60
2018-04-13T21:45:21.555Z,73.50
2018-04-13T21:47:52.542Z,74.70
2018-04-13T21:50:24.121Z,74.70
2018-04-13T21:52:55.356Z,77.90
2018-04-13T21:55:25.175Z,77.90
2018-04-13T21:57:55.538Z,73.70
2018-04-13T22:00:25.308Z,71.60
2018-04-13T22:02:55.619Z,73.60
2018-04-13T22:05:25.499Z,76.20
2018-04-13T22:07:56.565Z,75.20
2018-04-13T22:10:26.823Z,75.20
2018-04-13T22:13:07.706Z,72.50
2018-04-13T22:15:37.504Z,75.20
2018-04-13T22:18:07.969Z,77.30
2018-04-13T22:20:39.257Z,75.20
2018-04-13T22:23:09.502Z,75.20
2018-04-13T22:25:39.889Z,72.60
2018-04-13T22:28:10.133Z,75.70
2018-04-13T22:30:40.526Z,77.70
2018-04-13T22:33:11.588Z,74.50
2018-04-13T22:35:43.720Z,74.50
2018-04-13T22:38:14.357Z,76.10
2018-04-13T22:40:45.842Z,78.60
2018-04-13T22:43:16.552Z,77.80
2018-04-13T22:45:47.770Z,74.50
2018-04-13T22:48:17.753Z,74.40
2018-04-13T22:50:48.048Z,74.70
2018-04-13T22:53:17.787Z,76.80
2018-04-13T22:55:48.255Z,78.70
2018-04-13T22:58:18.310Z,76.80
2018-04-13T23:00:48.340Z,74.10
2018-04-13T23:03:18.449Z,74.50
2018-04-13T23:05:48.507Z,76.80
2018-04-13T23:08:19.273Z,78.30
2018-04-13T23:10:49.853Z,73.40
2018-04-13T23:13:19.716Z,73.20
2018-04-13T23:15:50.842Z,76.90
2018-04-13T23:18:20.760Z,76.90
2018-04-13T23:20:50.643Z,78.60
2018-04-13T23:23:20.811Z,75.80
2018-04-13T23:25:52.340Z,75.80
2018-04-13T23:28:22.524Z,75.70
2018-04-13T23:30:53.078Z,77.80
2018-04-13T23:33:23.361Z,79.30
2018-04-13T23:35:54.787Z,75.20
2018-04-13T23:38:26.502Z,77.40
2018-04-13T23:40:56.780Z,77.40
2018-04-13T23:43:28.046Z,79.20
2018-04-13T23:45:59.069Z,77.50
2018-04-13T23:48:30.054Z,74.60
2018-04-13T23:51:00.531Z,76.00
2018-04-13T23:53:32.616Z,79.90
2018-04-13T23:56:02.564Z,79.90
2018-04-13T23:58:32.837Z,76.60
